Аэропорт: Нахичевань. Нахичевань

ICAO: UBBN

METAR:
2021-04-21 21:00:00
UBBN 212100Z 03008KT 9999 SCT040CB OVC100 19/08 Q1015 R14R/CLRD// NOSIG RMK MT OP QFE686
METAR:
2021-04-21 17:03:00
TAF UBBN 211703Z 2118/2218 VRB04KT 9999 SCT040 FEW050CB BKN100 TX29/2212Z TN16/2203Z TEMPO 2118/2124 VRB16KT -TSRA SCT036CB OVC080 TEMPO 2200/2208 03010KT TEMPO 2208/2218 VRB18KT -TSRA BKN030CB OVC070